sensor_id;sensor_type;location;lat;lon;timestamp;P1;durP1;ratioP1;P2;durP2;ratioP2
17604;SDS011;8921;50.964;6.800;2024-03-23T00:54:17;18.67;;;9.20;;
17604;SDS011;8921;50.964;6.800;2024-03-23T00:56:45;24.03;;;10.53;;
17604;SDS011;8921;50.964;6.800;2024-03-23T00:59:13;17.47;;;9.50;;
17604;SDS011;8921;50.964;6.800;2024-03-23T01:04:15;20.40;;;8.17;;
17604;SDS011;8921;50.964;6.800;2024-03-23T01:06:43;18.07;;;8.67;;
17604;SDS011;8921;50.964;6.800;2024-03-23T01:09:12;15.73;;;7.93;;
17604;SDS011;8921;50.964;6.800;2024-03-23T01:11:40;17.83;;;5.97;;
17604;SDS011;8921;50.964;6.800;2024-03-23T01:14:08;9.43;;;3.93;;
17604;SDS011;8921;50.964;6.800;2024-03-23T01:16:37;9.50;;;2.80;;
17604;SDS011;8921;50.964;6.800;2024-03-23T01:19:05;12.10;;;3.50;;
17604;SDS011;8921;50.964;6.800;2024-03-23T01:21:33;7.30;;;4.10;;
17604;SDS011;8921;50.964;6.800;2024-03-23T01:24:02;13.23;;;3.80;;
17604;SDS011;8921;50.964;6.800;2024-03-23T01:26:30;12.37;;;4.07;;
17604;SDS011;8921;50.964;6.800;2024-03-23T01:28:59;12.37;;;4.50;;
17604;SDS011;8921;50.964;6.800;2024-03-23T01:31:26;12.70;;;4.33;;
17604;SDS011;8921;50.964;6.800;2024-03-23T01:33:55;7.40;;;4.17;;
17604;SDS011;8921;50.964;6.800;2024-03-23T01:36:23;8.83;;;4.33;;
17604;SDS011;8921;50.964;6.800;2024-03-23T01:38:51;15.90;;;6.43;;
17604;SDS011;8921;50.964;6.800;2024-03-23T01:41:20;17.10;;;5.73;;
17604;SDS011;8921;50.964;6.800;2024-03-23T01:43:48;16.33;;;5.47;;
17604;SDS011;8921;50.964;6.800;2024-03-23T01:46:16;19.97;;;7.10;;
17604;SDS011;8921;50.964;6.800;2024-03-23T01:48:45;17.20;;;5.60;;
17604;SDS011;8921;50.964;6.800;2024-03-23T01:51:13;18.00;;;5.97;;
17604;SDS011;8921;50.964;6.800;2024-03-23T01:53:41;12.50;;;7.17;;
17604;SDS011;8921;50.964;6.800;2024-03-23T01:56:09;12.53;;;5.37;;
17604;SDS011;8921;50.964;6.800;2024-03-23T01:58:38;17.50;;;7.87;;
17604;SDS011;8921;50.964;6.800;2024-03-23T02:01:06;16.23;;;7.80;;
17604;SDS011;8921;50.964;6.800;2024-03-23T02:03:34;25.90;;;8.97;;
17604;SDS011;8921;50.964;6.800;2024-03-23T02:06:03;24.20;;;7.90;;
17604;SDS011;8921;50.964;6.800;2024-03-23T02:08:31;16.20;;;5.90;;
17604;SDS011;8921;50.964;6.800;2024-03-23T02:10:59;12.97;;;5.13;;
17604;SDS011;8921;50.964;6.800;2024-03-23T02:13:28;8.67;;;2.70;;
17604;SDS011;8921;50.964;6.800;2024-03-23T02:15:56;5.93;;;2.97;;
17604;SDS011;8921;50.964;6.800;2024-03-23T02:18:24;6.10;;;2.40;;
17604;SDS011;8921;50.964;6.800;2024-03-23T02:20:53;9.63;;;2.03;;
17604;SDS011;8921;50.964;6.800;2024-03-23T02:23:21;8.37;;;2.53;;
17604;SDS011;8921;50.964;6.800;2024-03-23T02:25:49;10.27;;;2.10;;
17604;SDS011;8921;50.964;6.800;2024-03-23T02:28:17;6.87;;;2.10;;
17604;SDS011;8921;50.964;6.800;2024-03-23T02:30:46;7.27;;;2.43;;
17604;SDS011;8921;50.964;6.800;2024-03-23T02:33:14;10.40;;;2.20;;
17604;SDS011;8921;50.964;6.800;2024-03-23T02:35:45;12.67;;;2.00;;
17604;SDS011;8921;50.964;6.800;2024-03-23T02:38:13;11.07;;;2.50;;
17604;SDS011;8921;50.964;6.800;2024-03-23T02:40:42;12.93;;;3.30;;
17604;SDS011;8921;50.964;6.800;2024-03-23T02:43:10;9.80;;;2.47;;
17604;SDS011;8921;50.964;6.800;2024-03-23T02:45:38;11.07;;;2.93;;
17604;SDS011;8921;50.964;6.800;2024-03-23T02:48:07;6.83;;;2.40;;
17604;SDS011;8921;50.964;6.800;2024-03-23T02:50:35;11.73;;;3.03;;
17604;SDS011;8921;50.964;6.800;2024-03-23T02:53:03;10.07;;;3.27;;
17604;SDS011;8921;50.964;6.800;2024-03-23T02:55:31;5.83;;;2.10;;
17604;SDS011;8921;50.964;6.800;2024-03-23T02:58:00;11.97;;;3.27;;
17604;SDS011;8921;50.964;6.800;2024-03-23T03:00:28;10.50;;;2.80;;
17604;SDS011;8921;50.964;6.800;2024-03-23T03:02:56;9.60;;;2.70;;
17604;SDS011;8921;50.964;6.800;2024-03-23T03:05:25;7.00;;;2.43;;
17604;SDS011;8921;50.964;6.800;2024-03-23T03:07:53;8.13;;;2.40;;
17604;SDS011;8921;50.964;6.800;2024-03-23T03:10:21;6.90;;;3.00;;
17604;SDS011;8921;50.964;6.800;2024-03-23T03:12:50;8.33;;;2.53;;
17604;SDS011;8921;50.964;6.800;2024-03-23T03:15:18;8.37;;;3.00;;
17604;SDS011;8921;50.964;6.800;2024-03-23T03:17:46;10.77;;;2.70;;
17604;SDS011;8921;50.964;6.800;2024-03-23T03:20:14;10.20;;;2.80;;
17604;SDS011;8921;50.964;6.800;2024-03-23T03:22:43;10.40;;;2.50;;
17604;SDS011;8921;50.964;6.800;2024-03-23T03:25:11;10.53;;;2.50;;
17604;SDS011;8921;50.964;6.800;2024-03-23T03:27:39;11.40;;;2.70;;
17604;SDS011;8921;50.964;6.800;2024-03-23T03:30:08;14.60;;;3.53;;
17604;SDS011;8921;50.964;6.800;2024-03-23T03:32:36;19.63;;;2.70;;
17604;SDS011;8921;50.964;6.800;2024-03-23T03:35:05;7.40;;;2.70;;
17604;SDS011;8921;50.964;6.800;2024-03-23T03:37:33;11.27;;;2.90;;
17604;SDS011;8921;50.964;6.800;2024-03-23T03:40:01;5.90;;;2.20;;
17604;SDS011;8921;50.964;6.800;2024-03-23T03:42:29;14.40;;;3.10;;
17604;SDS011;8921;50.964;6.800;2024-03-23T03:44:58;10.80;;;2.70;;
17604;SDS011;8921;50.964;6.800;2024-03-23T03:47:26;7.93;;;2.70;;
17604;SDS011;8921;50.964;6.800;2024-03-23T03:49:54;13.13;;;3.90;;
17604;SDS011;8921;50.964;6.800;2024-03-23T03:52:23;13.83;;;3.20;;
17604;SDS011;8921;50.964;6.800;2024-03-23T03:54:51;8.97;;;2.70;;
17604;SDS011;8921;50.964;6.800;2024-03-23T03:57:19;9.27;;;2.50;;
17604;SDS011;8921;50.964;6.800;2024-03-23T03:59:47;7.70;;;2.57;;
17604;SDS011;8921;50.964;6.800;2024-03-23T04:02:16;13.10;;;3.03;;
17604;SDS011;8921;50.964;6.800;2024-03-23T04:04:44;11.73;;;2.73;;
17604;SDS011;8921;50.964;6.800;2024-03-23T04:07:12;13.90;;;3.13;;
17604;SDS011;8921;50.964;6.800;2024-03-23T04:09:41;13.10;;;2.90;;
17604;SDS011;8921;50.964;6.800;2024-03-23T04:12:09;9.70;;;2.67;;
17604;SDS011;8921;50.964;6.800;2024-03-23T04:14:37;8.53;;;2.50;;
17604;SDS011;8921;50.964;6.800;2024-03-23T04:17:06;11.73;;;3.07;;
17604;SDS011;8921;50.964;6.800;2024-03-23T04:19:34;10.30;;;2.83;;
17604;SDS011;8921;50.964;6.800;2024-03-23T04:22:02;14.80;;;3.40;;
17604;SDS011;8921;50.964;6.800;2024-03-23T04:24:30;12.83;;;3.03;;
17604;SDS011;8921;50.964;6.800;2024-03-23T04:26:59;11.10;;;3.73;;
17604;SDS011;8921;50.964;6.800;2024-03-23T04:29:27;14.00;;;3.30;;
17604;SDS011;8921;50.964;6.800;2024-03-23T04:31:55;14.17;;;3.33;;
17604;SDS011;8921;50.964;6.800;2024-03-23T04:34:24;14.90;;;3.67;;
17604;SDS011;8921;50.964;6.800;2024-03-23T04:36:52;12.10;;;3.10;;
17604;SDS011;8921;50.964;6.800;2024-03-23T04:39:20;16.30;;;4.50;;
17604;SDS011;8921;50.964;6.800;2024-03-23T04:41:49;12.40;;;3.20;;
17604;SDS011;8921;50.964;6.800;2024-03-23T04:44:17;11.43;;;4.03;;
17604;SDS011;8921;50.964;6.800;2024-03-23T04:46:45;10.30;;;3.63;;
17604;SDS011;8921;50.964;6.800;2024-03-23T04:49:13;11.77;;;3.57;;
17604;SDS011;8921;50.964;6.800;2024-03-23T04:51:42;11.97;;;3.80;;
17604;SDS011;8921;50.964;6.800;2024-03-23T04:54:10;12.03;;;2.83;;
17604;SDS011;8921;50.964;6.800;2024-03-23T04:56:38;19.37;;;4.80;;
17604;SDS011;8921;50.964;6.800;2024-03-23T04:59:07;10.23;;;3.63;;
17604;SDS011;8921;50.964;6.800;2024-03-23T05:01:35;10.70;;;4.00;;
17604;SDS011;8921;50.964;6.800;2024-03-23T05:04:03;20.67;;;8.10;;
17604;SDS011;8921;50.964;6.800;2024-03-23T05:06:32;22.17;;;5.60;;
17604;SDS011;8921;50.964;6.800;2024-03-23T05:09:00;12.07;;;3.80;;
17604;SDS011;8921;50.964;6.800;2024-03-23T05:11:34;13.27;;;3.33;;
17604;SDS011;8921;50.964;6.800;2024-03-23T05:14:03;10.50;;;3.90;;
17604;SDS011;8921;50.964;6.800;2024-03-23T05:16:31;8.67;;;3.07;;
17604;SDS011;8921;50.964;6.800;2024-03-23T05:18:59;17.33;;;4.10;;
17604;SDS011;8921;50.964;6.800;2024-03-23T05:21:27;15.47;;;3.60;;
17604;SDS011;8921;50.964;6.800;2024-03-23T05:23:56;20.23;;;6.50;;
17604;SDS011;8921;50.964;6.800;2024-03-23T05:26:24;12.10;;;3.80;;
17604;SDS011;8921;50.964;6.800;2024-03-23T05:28:52;19.73;;;5.17;;
17604;SDS011;8921;50.964;6.800;2024-03-23T05:31:24;15.17;;;3.70;;
17604;SDS011;8921;50.964;6.800;2024-03-23T05:33:52;17.23;;;3.47;;
17604;SDS011;8921;50.964;6.800;2024-03-23T05:36:20;14.50;;;6.23;;
17604;SDS011;8921;50.964;6.800;2024-03-23T05:38:48;14.07;;;4.50;;
17604;SDS011;8921;50.964;6.800;2024-03-23T05:41:16;14.70;;;4.80;;
17604;SDS011;8921;50.964;6.800;2024-03-23T05:43:45;14.97;;;4.00;;
17604;SDS011;8921;50.964;6.800;2024-03-23T05:46:13;12.03;;;4.33;;
17604;SDS011;8921;50.964;6.800;2024-03-23T05:48:41;10.27;;;3.67;;
17604;SDS011;8921;50.964;6.800;2024-03-23T05:51:10;20.53;;;3.80;;
17604;SDS011;8921;50.964;6.800;2024-03-23T05:53:38;13.93;;;3.30;;
17604;SDS011;8921;50.964;6.800;2024-03-23T05:56:06;13.10;;;3.50;;
17604;SDS011;8921;50.964;6.800;2024-03-23T05:58:35;9.07;;;3.57;;
17604;SDS011;8921;50.964;6.800;2024-03-23T06:01:03;11.83;;;3.47;;
17604;SDS011;8921;50.964;6.800;2024-03-23T06:03:31;15.53;;;4.20;;
17604;SDS011;8921;50.964;6.800;2024-03-23T06:06:00;18.93;;;6.23;;
17604;SDS011;8921;50.964;6.800;2024-03-23T06:08:28;13.07;;;5.23;;
17604;SDS011;8921;50.964;6.800;2024-03-23T06:10:56;14.87;;;4.50;;
17604;SDS011;8921;50.964;6.800;2024-03-23T06:13:24;10.67;;;3.53;;
17604;SDS011;8921;50.964;6.800;2024-03-23T06:15:53;12.53;;;3.97;;
17604;SDS011;8921;50.964;6.800;2024-03-23T06:18:21;11.13;;;4.33;;
17604;SDS011;8921;50.964;6.800;2024-03-23T06:20:49;12.27;;;2.97;;
17604;SDS011;8921;50.964;6.800;2024-03-23T06:23:18;20.07;;;4.43;;
17604;SDS011;8921;50.964;6.800;2024-03-23T06:25:46;11.07;;;3.70;;
17604;SDS011;8921;50.964;6.800;2024-03-23T06:28:14;14.13;;;4.37;;
17604;SDS011;8921;50.964;6.800;2024-03-23T06:30:42;13.17;;;4.23;;
17604;SDS011;8921;50.964;6.800;2024-03-23T06:33:11;14.60;;;4.50;;
17604;SDS011;8921;50.964;6.800;2024-03-23T06:35:39;11.13;;;4.30;;
17604;SDS011;8921;50.964;6.800;2024-03-23T06:38:07;14.80;;;4.67;;
17604;SDS011;8921;50.964;6.800;2024-03-23T06:40:36;14.87;;;3.20;;
17604;SDS011;8921;50.964;6.800;2024-03-23T06:43:04;18.47;;;3.60;;
17604;SDS011;8921;50.964;6.800;2024-03-23T06:45:32;10.90;;;4.20;;
17604;SDS011;8921;50.964;6.800;2024-03-23T06:48:01;11.23;;;3.73;;
17604;SDS011;8921;50.964;6.800;2024-03-23T06:50:29;14.87;;;4.50;;
17604;SDS011;8921;50.964;6.800;2024-03-23T06:52:57;14.60;;;3.50;;
17604;SDS011;8921;50.964;6.800;2024-03-23T06:55:25;14.93;;;3.97;;
17604;SDS011;8921;50.964;6.800;2024-03-23T06:57:54;9.57;;;3.60;;
17604;SDS011;8921;50.964;6.800;2024-03-23T07:00:25;23.47;;;4.37;;
17604;SDS011;8921;50.964;6.800;2024-03-23T07:02:53;13.97;;;3.63;;
17604;SDS011;8921;50.964;6.800;2024-03-23T07:05:21;12.47;;;3.87;;
17604;SDS011;8921;50.964;6.800;2024-03-23T07:07:50;17.07;;;4.80;;
17604;SDS011;8921;50.964;6.800;2024-03-23T07:10:18;8.87;;;4.00;;
17604;SDS011;8921;50.964;6.800;2024-03-23T07:12:46;22.97;;;5.90;;
17604;SDS011;8921;50.964;6.800;2024-03-23T07:15:14;20.07;;;8.70;;
17604;SDS011;8921;50.964;6.800;2024-03-23T07:17:46;20.40;;;5.97;;
17604;SDS011;8921;50.964;6.800;2024-03-23T07:20:11;9.50;;;5.07;;
17604;SDS011;8921;50.964;6.800;2024-03-23T07:22:39;18.00;;;6.00;;
17604;SDS011;8921;50.964;6.800;2024-03-23T07:25:08;14.37;;;6.20;;
17604;SDS011;8921;50.964;6.800;2024-03-23T07:27:36;13.57;;;5.30;;
17604;SDS011;8921;50.964;6.800;2024-03-23T07:30:05;15.00;;;6.17;;
17604;SDS011;8921;50.964;6.800;2024-03-23T07:32:33;15.00;;;6.50;;
17604;SDS011;8921;50.964;6.800;2024-03-23T07:35:01;12.47;;;5.30;;
17604;SDS011;8921;50.964;6.800;2024-03-23T07:37:30;22.07;;;6.27;;
17604;SDS011;8921;50.964;6.800;2024-03-23T07:39:58;16.13;;;5.97;;
17604;SDS011;8921;50.964;6.800;2024-03-23T07:42:26;14.37;;;6.10;;
17604;SDS011;8921;50.964;6.800;2024-03-23T07:44:55;20.30;;;6.80;;
17604;SDS011;8921;50.964;6.800;2024-03-23T07:47:23;12.63;;;6.70;;
17604;SDS011;8921;50.964;6.800;2024-03-23T07:49:51;11.97;;;6.13;;
17604;SDS011;8921;50.964;6.800;2024-03-23T07:52:19;10.90;;;6.10;;
17604;SDS011;8921;50.964;6.800;2024-03-23T07:54:48;14.10;;;6.00;;
17604;SDS011;8921;50.964;6.800;2024-03-23T07:57:16;16.07;;;6.90;;
17604;SDS011;8921;50.964;6.800;2024-03-23T07:59:45;13.93;;;6.23;;
17604;SDS011;8921;50.964;6.800;2024-03-23T08:02:13;9.67;;;5.40;;
17604;SDS011;8921;50.964;6.800;2024-03-23T08:04:42;13.20;;;5.30;;
17604;SDS011;8921;50.964;6.800;2024-03-23T08:07:10;13.77;;;4.80;;
17604;SDS011;8921;50.964;6.800;2024-03-23T08:09:38;14.80;;;4.60;;
17604;SDS011;8921;50.964;6.800;2024-03-23T08:12:07;11.47;;;4.20;;
17604;SDS011;8921;50.964;6.800;2024-03-23T08:14:35;11.13;;;3.13;;
17604;SDS011;8921;50.964;6.800;2024-03-23T08:17:03;12.83;;;3.20;;
17604;SDS011;8921;50.964;6.800;2024-03-23T08:19:31;8.00;;;3.30;;
17604;SDS011;8921;50.964;6.800;2024-03-23T08:22:00;9.83;;;3.37;;
17604;SDS011;8921;50.964;6.800;2024-03-23T08:24:28;9.77;;;3.40;;
17604;SDS011;8921;50.964;6.800;2024-03-23T08:26:56;8.80;;;4.47;;
17604;SDS011;8921;50.964;6.800;2024-03-23T08:29:25;10.50;;;4.57;;
17604;SDS011;8921;50.964;6.800;2024-03-23T08:31:53;10.40;;;4.33;;
17604;SDS011;8921;50.964;6.800;2024-03-23T08:34:21;11.80;;;4.83;;
17604;SDS011;8921;50.964;6.800;2024-03-23T08:36:50;11.67;;;4.87;;
17604;SDS011;8921;50.964;6.800;2024-03-23T08:39:18;22.33;;;9.60;;
17604;SDS011;8921;50.964;6.800;2024-03-23T08:41:46;11.53;;;5.50;;
17604;SDS011;8921;50.964;6.800;2024-03-23T08:44:15;13.37;;;5.77;;
17604;SDS011;8921;50.964;6.800;2024-03-23T08:46:43;15.67;;;6.40;;
17604;SDS011;8921;50.964;6.800;2024-03-23T08:49:11;15.40;;;5.97;;
17604;SDS011;8921;50.964;6.800;2024-03-23T08:51:39;14.10;;;5.53;;
17604;SDS011;8921;50.964;6.800;2024-03-23T08:54:08;14.90;;;6.03;;
17604;SDS011;8921;50.964;6.800;2024-03-23T08:56:36;14.03;;;6.60;;
17604;SDS011;8921;50.964;6.800;2024-03-23T08:59:04;14.50;;;5.80;;
17604;SDS011;8921;50.964;6.800;2024-03-23T09:01:33;11.13;;;5.17;;
17604;SDS011;8921;50.964;6.800;2024-03-23T09:04:01;15.47;;;5.07;;
17604;SDS011;8921;50.964;6.800;2024-03-23T09:06:29;16.57;;;5.60;;
17604;SDS011;8921;50.964;6.800;2024-03-23T09:08:57;10.30;;;4.40;;
17604;SDS011;8921;50.964;6.800;2024-03-23T09:11:26;14.97;;;6.00;;
17604;SDS011;8921;50.964;6.800;2024-03-23T09:13:54;15.40;;;5.00;;
17604;SDS011;8921;50.964;6.800;2024-03-23T09:16:22;13.00;;;5.00;;
17604;SDS011;8921;50.964;6.800;2024-03-23T09:18:51;11.10;;;4.23;;
17604;SDS011;8921;50.964;6.800;2024-03-23T09:21:19;11.70;;;4.57;;
17604;SDS011;8921;50.964;6.800;2024-03-23T09:23:47;12.60;;;5.50;;
17604;SDS011;8921;50.964;6.800;2024-03-23T09:26:16;16.53;;;4.13;;
17604;SDS011;8921;50.964;6.800;2024-03-23T09:28:44;9.90;;;3.60;;
17604;SDS011;8921;50.964;6.800;2024-03-23T09:31:12;25.90;;;3.90;;
17604;SDS011;8921;50.964;6.800;2024-03-23T09:33:41;15.83;;;4.10;;
17604;SDS011;8921;50.964;6.800;2024-03-23T09:36:09;15.50;;;3.67;;
17604;SDS011;8921;50.964;6.800;2024-03-23T09:38:37;10.37;;;4.20;;
17604;SDS011;8921;50.964;6.800;2024-03-23T09:41:09;14.20;;;5.03;;
17604;SDS011;8921;50.964;6.800;2024-03-23T09:43:37;13.50;;;3.97;;
17604;SDS011;8921;50.964;6.800;2024-03-23T09:46:05;10.33;;;4.03;;
17604;SDS011;8921;50.964;6.800;2024-03-23T09:48:33;21.63;;;3.00;;
17604;SDS011;8921;50.964;6.800;2024-03-23T09:51:02;10.20;;;3.40;;
17604;SDS011;8921;50.964;6.800;2024-03-23T09:53:30;11.73;;;3.73;;
17604;SDS011;8921;50.964;6.800;2024-03-23T09:55:58;12.27;;;3.00;;
17604;SDS011;8921;50.964;6.800;2024-03-23T09:58:26;11.17;;;3.37;;
17604;SDS011;8921;50.964;6.800;2024-03-23T10:00:55;17.07;;;2.97;;
17604;SDS011;8921;50.964;6.800;2024-03-23T10:03:23;10.83;;;3.37;;
17604;SDS011;8921;50.964;6.800;2024-03-23T10:06:01;10.00;;;3.13;;
17604;SDS011;8921;50.964;6.800;2024-03-23T10:08:29;11.67;;;3.70;;
17604;SDS011;8921;50.964;6.800;2024-03-23T10:10:57;10.63;;;3.10;;
17604;SDS011;8921;50.964;6.800;2024-03-23T10:13:28;9.30;;;2.43;;
17604;SDS011;8921;50.964;6.800;2024-03-23T10:15:56;13.87;;;3.50;;
17604;SDS011;8921;50.964;6.800;2024-03-23T10:18:25;9.97;;;2.60;;
17604;SDS011;8921;50.964;6.800;2024-03-23T10:23:34;10.90;;;3.23;;
17604;SDS011;8921;50.964;6.800;2024-03-23T10:31:28;6.67;;;1.90;;
17604;SDS011;8921;50.964;6.800;2024-03-23T10:33:56;7.80;;;2.40;;
17604;SDS011;8921;50.964;6.800;2024-03-23T10:36:24;12.10;;;3.00;;
17604;SDS011;8921;50.964;6.800;2024-03-23T10:38:53;14.37;;;3.20;;
17604;SDS011;8921;50.964;6.800;2024-03-23T10:41:21;9.50;;;2.77;;
17604;SDS011;8921;50.964;6.800;2024-03-23T10:43:49;6.97;;;1.53;;
17604;SDS011;8921;50.964;6.800;2024-03-23T10:46:17;6.80;;;1.57;;
17604;SDS011;8921;50.964;6.800;2024-03-23T10:48:46;5.80;;;1.57;;
17604;SDS011;8921;50.964;6.800;2024-03-23T10:51:14;6.70;;;1.90;;
17604;SDS011;8921;50.964;6.800;2024-03-23T10:53:42;7.17;;;2.63;;
17604;SDS011;8921;50.964;6.800;2024-03-23T10:56:10;7.67;;;2.17;;
17604;SDS011;8921;50.964;6.800;2024-03-23T10:58:40;8.57;;;2.40;;
17604;SDS011;8921;50.964;6.800;2024-03-23T11:01:10;7.33;;;2.63;;
17604;SDS011;8921;50.964;6.800;2024-03-23T11:03:36;8.70;;;3.00;;
17604;SDS011;8921;50.964;6.800;2024-03-23T11:06:04;6.63;;;2.70;;
17604;SDS011;8921;50.964;6.800;2024-03-23T11:13:47;7.33;;;2.43;;
17604;SDS011;8921;50.964;6.800;2024-03-23T11:16:21;6.17;;;1.27;;
17604;SDS011;8921;50.964;6.800;2024-03-23T11:18:45;4.33;;;1.10;;
17604;SDS011;8921;50.964;6.800;2024-03-23T11:24:22;8.23;;;1.50;;
17604;SDS011;8921;50.964;6.800;2024-03-23T11:26:50;6.53;;;1.60;;
17604;SDS011;8921;50.964;6.800;2024-03-23T11:29:18;7.83;;;2.43;;
17604;SDS011;8921;50.964;6.800;2024-03-23T11:31:47;4.80;;;1.37;;
17604;SDS011;8921;50.964;6.800;2024-03-23T11:34:15;19.33;;;2.17;;
17604;SDS011;8921;50.964;6.800;2024-03-23T11:36:44;7.97;;;1.97;;
17604;SDS011;8921;50.964;6.800;2024-03-23T11:41:50;9.03;;;2.37;;
17604;SDS011;8921;50.964;6.800;2024-03-23T11:44:18;9.47;;;3.60;;
17604;SDS011;8921;50.964;6.800;2024-03-23T11:46:46;7.27;;;1.77;;
17604;SDS011;8921;50.964;6.800;2024-03-23T11:49:23;15.20;;;2.57;;
17604;SDS011;8921;50.964;6.800;2024-03-23T11:51:52;10.90;;;2.03;;
17604;SDS011;8921;50.964;6.800;2024-03-23T11:54:22;6.33;;;1.73;;
17604;SDS011;8921;50.964;6.800;2024-03-23T11:56:53;8.43;;;2.20;;
17604;SDS011;8921;50.964;6.800;2024-03-23T12:02:11;6.17;;;1.40;;
17604;SDS011;8921;50.964;6.800;2024-03-23T12:04:42;5.63;;;1.53;;
17604;SDS011;8921;50.964;6.800;2024-03-23T12:07:17;8.37;;;1.57;;
17604;SDS011;8921;50.964;6.800;2024-03-23T12:09:45;6.73;;;1.90;;
17604;SDS011;8921;50.964;6.800;2024-03-23T12:12:16;8.23;;;1.70;;
17604;SDS011;8921;50.964;6.800;2024-03-23T12:14:45;6.40;;;1.80;;
17604;SDS011;8921;50.964;6.800;2024-03-23T12:17:14;6.10;;;1.33;;
17604;SDS011;8921;50.964;6.800;2024-03-23T12:19:41;7.37;;;1.97;;
17604;SDS011;8921;50.964;6.800;2024-03-23T12:22:10;4.90;;;1.50;;
17604;SDS011;8921;50.964;6.800;2024-03-23T12:24:38;5.67;;;1.80;;
17604;SDS011;8921;50.964;6.800;2024-03-23T12:27:06;5.83;;;1.70;;
17604;SDS011;8921;50.964;6.800;2024-03-23T12:29:35;5.37;;;1.50;;
17604;SDS011;8921;50.964;6.800;2024-03-23T12:32:03;4.83;;;1.40;;
17604;SDS011;8921;50.964;6.800;2024-03-23T12:34:32;4.47;;;1.20;;
17604;SDS011;8921;50.964;6.800;2024-03-23T12:37:00;4.00;;;1.00;;
17604;SDS011;8921;50.964;6.800;2024-03-23T12:39:28;5.47;;;1.20;;
17604;SDS011;8921;50.964;6.800;2024-03-23T12:41:56;4.70;;;1.13;;
17604;SDS011;8921;50.964;6.800;2024-03-23T12:44:25;5.23;;;1.00;;
17604;SDS011;8921;50.964;6.800;2024-03-23T12:46:53;3.60;;;1.00;;
17604;SDS011;8921;50.964;6.800;2024-03-23T12:49:21;5.70;;;1.40;;
17604;SDS011;8921;50.964;6.800;2024-03-23T12:51:53;4.33;;;1.20;;
17604;SDS011;8921;50.964;6.800;2024-03-23T12:54:24;7.60;;;2.07;;
17604;SDS011;8921;50.964;6.800;2024-03-23T12:56:52;4.90;;;1.60;;
17604;SDS011;8921;50.964;6.800;2024-03-23T12:59:21;7.53;;;1.43;;
17604;SDS011;8921;50.964;6.800;2024-03-23T13:01:49;7.47;;;1.80;;
17604;SDS011;8921;50.964;6.800;2024-03-23T13:04:17;5.33;;;1.60;;
17604;SDS011;8921;50.964;6.800;2024-03-23T13:06:46;5.53;;;2.00;;
17604;SDS011;8921;50.964;6.800;2024-03-23T13:09:14;8.30;;;2.40;;
17604;SDS011;8921;50.964;6.800;2024-03-23T13:11:42;6.30;;;2.07;;
17604;SDS011;8921;50.964;6.800;2024-03-23T13:14:11;7.03;;;2.07;;
17604;SDS011;8921;50.964;6.800;2024-03-23T13:16:39;5.93;;;2.10;;
17604;SDS011;8921;50.964;6.800;2024-03-23T13:19:07;9.30;;;3.20;;
17604;SDS011;8921;50.964;6.800;2024-03-23T13:21:36;9.60;;;3.23;;
17604;SDS011;8921;50.964;6.800;2024-03-23T13:24:04;8.10;;;2.60;;
17604;SDS011;8921;50.964;6.800;2024-03-23T13:26:33;6.23;;;2.20;;
17604;SDS011;8921;50.964;6.800;2024-03-23T13:29:01;7.90;;;2.77;;
17604;SDS011;8921;50.964;6.800;2024-03-23T13:31:29;6.57;;;2.20;;
17604;SDS011;8921;50.964;6.800;2024-03-23T13:33:58;7.73;;;2.40;;
17604;SDS011;8921;50.964;6.800;2024-03-23T13:36:26;10.17;;;2.63;;
17604;SDS011;8921;50.964;6.800;2024-03-23T13:38:54;9.63;;;2.77;;
17604;SDS011;8921;50.964;6.800;2024-03-23T13:41:23;8.47;;;2.30;;
17604;SDS011;8921;50.964;6.800;2024-03-23T13:43:51;5.40;;;2.40;;
17604;SDS011;8921;50.964;6.800;2024-03-23T13:46:19;9.80;;;1.80;;
17604;SDS011;8921;50.964;6.800;2024-03-23T13:48:48;4.70;;;1.47;;
17604;SDS011;8921;50.964;6.800;2024-03-23T13:51:22;5.60;;;1.40;;
17604;SDS011;8921;50.964;6.800;2024-03-23T13:53:44;5.47;;;1.80;;
17604;SDS011;8921;50.964;6.800;2024-03-23T13:56:13;5.43;;;1.40;;
17604;SDS011;8921;50.964;6.800;2024-03-23T13:58:41;7.20;;;2.90;;
17604;SDS011;8921;50.964;6.800;2024-03-23T14:01:09;6.53;;;1.87;;
17604;SDS011;8921;50.964;6.800;2024-03-23T14:03:38;11.47;;;2.80;;
17604;SDS011;8921;50.964;6.800;2024-03-23T14:06:06;7.03;;;1.70;;
17604;SDS011;8921;50.964;6.800;2024-03-23T14:08:35;9.40;;;1.80;;
17604;SDS011;8921;50.964;6.800;2024-03-23T14:11:03;4.40;;;1.40;;
17604;SDS011;8921;50.964;6.800;2024-03-23T14:13:31;4.40;;;1.50;;
17604;SDS011;8921;50.964;6.800;2024-03-23T14:15:59;4.17;;;1.40;;
17604;SDS011;8921;50.964;6.800;2024-03-23T14:18:28;6.13;;;1.70;;
17604;SDS011;8921;50.964;6.800;2024-03-23T14:20:56;8.03;;;2.60;;
17604;SDS011;8921;50.964;6.800;2024-03-23T14:23:25;6.50;;;2.07;;
17604;SDS011;8921;50.964;6.800;2024-03-23T14:25:53;5.80;;;2.00;;
17604;SDS011;8921;50.964;6.800;2024-03-23T14:28:21;6.53;;;2.03;;
17604;SDS011;8921;50.964;6.800;2024-03-23T14:30:50;9.47;;;2.43;;
17604;SDS011;8921;50.964;6.800;2024-03-23T14:33:18;8.77;;;3.13;;
17604;SDS011;8921;50.964;6.800;2024-03-23T14:35:52;7.53;;;2.67;;
17604;SDS011;8921;50.964;6.800;2024-03-23T14:38:20;5.90;;;1.80;;
17604;SDS011;8921;50.964;6.800;2024-03-23T14:40:48;9.87;;;2.53;;
17604;SDS011;8921;50.964;6.800;2024-03-23T14:43:17;10.00;;;2.43;;
17604;SDS011;8921;50.964;6.800;2024-03-23T14:46:04;8.20;;;1.87;;
17604;SDS011;8921;50.964;6.800;2024-03-23T14:48:32;5.30;;;1.67;;
17604;SDS011;8921;50.964;6.800;2024-03-23T14:51:00;5.40;;;1.40;;
17604;SDS011;8921;50.964;6.800;2024-03-23T14:53:32;5.60;;;1.80;;
17604;SDS011;8921;50.964;6.800;2024-03-23T14:56:00;9.63;;;2.93;;
17604;SDS011;8921;50.964;6.800;2024-03-23T14:58:28;4.93;;;1.70;;
17604;SDS011;8921;50.964;6.800;2024-03-23T15:00:59;6.10;;;1.97;;
17604;SDS011;8921;50.964;6.800;2024-03-23T15:03:27;4.87;;;1.50;;
17604;SDS011;8921;50.964;6.800;2024-03-23T15:05:55;5.00;;;1.63;;
17604;SDS011;8921;50.964;6.800;2024-03-23T15:08:24;6.73;;;1.40;;
17604;SDS011;8921;50.964;6.800;2024-03-23T15:10:52;4.63;;;1.63;;
17604;SDS011;8921;50.964;6.800;2024-03-23T15:13:23;5.37;;;1.50;;
17604;SDS011;8921;50.964;6.800;2024-03-23T15:15:51;6.93;;;1.80;;
17604;SDS011;8921;50.964;6.800;2024-03-23T15:18:20;4.90;;;1.67;;
17604;SDS011;8921;50.964;6.800;2024-03-23T15:20:55;4.23;;;1.47;;
17604;SDS011;8921;50.964;6.800;2024-03-23T15:23:22;5.73;;;1.73;;
17604;SDS011;8921;50.964;6.800;2024-03-23T15:25:57;5.60;;;1.90;;
17604;SDS011;8921;50.964;6.800;2024-03-23T15:28:26;5.50;;;2.03;;
17604;SDS011;8921;50.964;6.800;2024-03-23T15:30:57;11.53;;;2.27;;
17604;SDS011;8921;50.964;6.800;2024-03-23T15:33:22;6.53;;;2.10;;
17604;SDS011;8921;50.964;6.800;2024-03-23T15:35:50;5.30;;;1.70;;
17604;SDS011;8921;50.964;6.800;2024-03-23T15:38:19;9.53;;;1.93;;
17604;SDS011;8921;50.964;6.800;2024-03-23T15:40:50;6.67;;;1.80;;
17604;SDS011;8921;50.964;6.800;2024-03-23T15:43:18;5.87;;;1.97;;
17604;SDS011;8921;50.964;6.800;2024-03-23T15:45:59;5.80;;;2.13;;
17604;SDS011;8921;50.964;6.800;2024-03-23T15:48:27;5.70;;;1.60;;
17604;SDS011;8921;50.964;6.800;2024-03-23T15:51:03;4.47;;;1.67;;
17604;SDS011;8921;50.964;6.800;2024-03-23T15:53:29;5.20;;;1.97;;
17604;SDS011;8921;50.964;6.800;2024-03-23T15:55:58;8.00;;;2.23;;
17604;SDS011;8921;50.964;6.800;2024-03-23T15:58:26;6.30;;;2.47;;
17604;SDS011;8921;50.964;6.800;2024-03-23T16:00:57;6.40;;;2.00;;
17604;SDS011;8921;50.964;6.800;2024-03-23T16:03:26;4.83;;;2.00;;
17604;SDS011;8921;50.964;6.800;2024-03-23T16:05:54;7.50;;;1.80;;
17604;SDS011;8921;50.964;6.800;2024-03-23T16:08:22;5.27;;;1.50;;
17604;SDS011;8921;50.964;6.800;2024-03-23T16:10:50;6.40;;;1.37;;
17604;SDS011;8921;50.964;6.800;2024-03-23T16:13:19;8.53;;;3.50;;
17604;SDS011;8921;50.964;6.800;2024-03-23T16:16:05;9.23;;;2.20;;
17604;SDS011;8921;50.964;6.800;2024-03-23T16:18:27;5.60;;;1.70;;